createdAt,value
2023-02-13T00:00:20.260Z,45.83
2023-02-13T00:02:46.925Z,44.47
2023-02-13T00:05:13.617Z,45.50
2023-02-13T00:07:40.959Z,43.45
2023-02-13T00:10:08.239Z,38.65
2023-02-13T00:12:35.020Z,42.63
2023-02-13T00:15:01.659Z,45.00
2023-02-13T00:17:28.358Z,41.97
2023-02-13T00:19:54.944Z,43.80
2023-02-13T00:22:21.548Z,43.50
2023-02-13T00:24:48.474Z,41.40
2023-02-13T00:27:15.108Z,42.55
2023-02-13T00:29:41.768Z,41.28
2023-02-13T00:32:08.777Z,43.00
2023-02-13T00:34:35.857Z,43.65
2023-02-13T00:37:02.436Z,43.20
2023-02-13T00:39:29.114Z,39.97
2023-02-13T00:41:55.689Z,40.38
2023-02-13T00:44:22.289Z,43.80
2023-02-13T00:46:48.934Z,39.60
2023-02-13T00:49:15.571Z,42.72
2023-02-13T00:51:42.199Z,43.05
2023-02-13T00:54:08.777Z,42.15
2023-02-13T00:56:35.503Z,41.70
2023-02-13T00:59:02.285Z,41.53
2023-02-13T01:01:29.163Z,41.58
2023-02-13T01:03:55.817Z,41.38
2023-02-13T01:06:22.598Z,39.58
2023-02-13T01:08:49.249Z,40.58
2023-02-13T01:11:15.926Z,42.90
2023-02-13T01:13:42.586Z,39.60
2023-02-13T01:16:09.235Z,37.15
2023-02-13T01:18:36.041Z,40.05
2023-02-13T01:21:06.146Z,42.05
2023-02-13T01:23:37.717Z,38.40
2023-02-13T01:26:06.409Z,37.22
2023-02-13T01:28:33.874Z,39.85
2023-02-13T01:31:01.029Z,39.35
2023-02-13T01:33:28.992Z,38.20
2023-02-13T01:35:55.915Z,38.92
2023-02-13T01:38:22.530Z,39.63
2023-02-13T01:40:51.844Z,39.95
2023-02-13T01:43:19.001Z,38.58
2023-02-13T01:45:48.530Z,40.17
2023-02-13T01:48:21.704Z,41.03
2023-02-13T01:51:00.926Z,41.38
2023-02-13T01:53:45.412Z,40.25
2023-02-13T01:56:23.085Z,41.97
2023-02-13T01:58:54.628Z,43.65
2023-02-13T02:01:23.549Z,39.15
2023-02-13T02:04:19.967Z,43.22
2023-02-13T02:06:52.124Z,39.25
2023-02-13T02:09:25.750Z,38.60
2023-02-13T02:12:03.375Z,37.33
2023-02-13T02:14:30.192Z,39.22
2023-02-13T02:16:57.593Z,41.40
2023-02-13T02:19:55.360Z,37.92
2023-02-13T02:22:40.762Z,39.38
2023-02-13T02:25:37.340Z,40.08
2023-02-13T02:28:22.170Z,38.22
2023-02-13T02:30:54.629Z,37.58
2023-02-13T02:33:27.817Z,39.90
2023-02-13T02:36:06.867Z,39.55
2023-02-13T02:39:04.899Z,39.90
2023-02-13T02:41:54.717Z,37.47
2023-02-13T02:44:47.177Z,39.58
2023-02-13T02:47:49.754Z,38.88
2023-02-13T02:50:25.884Z,37.47
2023-02-13T02:53:14.406Z,37.60
2023-02-13T02:55:50.852Z,37.72
2023-02-13T02:58:55.027Z,36.45
2023-02-13T03:01:43.335Z,38.75
2023-02-13T03:04:48.139Z,36.47
2023-02-13T03:07:18.147Z,35.75
2023-02-13T03:10:10.057Z,31.98
2023-02-13T03:13:04.716Z,34.70
2023-02-13T03:15:32.356Z,36.33
2023-02-13T03:18:18.275Z,35.28
2023-02-13T03:21:26.764Z,36.58
2023-02-13T03:24:14.317Z,35.33
2023-02-13T03:27:12.025Z,36.65
2023-02-13T03:29:57.381Z,36.47
2023-02-13T03:32:47.384Z,36.60
2023-02-13T03:35:42.798Z,36.38
2023-02-13T03:38:19.859Z,37.97
2023-02-13T03:41:13.324Z,34.00
2023-02-13T03:44:04.695Z,38.78
2023-02-13T03:46:36.339Z,36.33
2023-02-13T03:49:25.073Z,35.85
2023-02-13T03:52:07.703Z,36.35
2023-02-13T03:55:07.608Z,35.50
2023-02-13T03:57:58.751Z,38.00
2023-02-13T04:00:29.347Z,38.08
2023-02-13T04:03:10.949Z,36.83
2023-02-13T04:05:43.396Z,40.60
2023-02-13T04:08:10.654Z,40.28
2023-02-13T04:10:55.403Z,36.17
2023-02-13T04:13:35.384Z,37.05
2023-02-13T04:16:22.500Z,35.50
2023-02-13T04:18:52.091Z,39.00
2023-02-13T04:21:18.673Z,38.35
2023-02-13T04:23:45.386Z,38.30
2023-02-13T04:26:18.219Z,37.95
2023-02-13T04:28:45.178Z,38.38
2023-02-13T04:31:11.970Z,35.05
2023-02-13T04:33:38.608Z,37.72
2023-02-13T04:36:05.700Z,36.55
2023-02-13T04:38:32.499Z,34.42
2023-02-13T04:40:59.649Z,36.22
2023-02-13T04:43:26.885Z,36.08
2023-02-13T04:45:53.613Z,36.40
2023-02-13T04:48:20.380Z,39.80
2023-02-13T04:50:48.112Z,40.13
2023-02-13T04:53:14.881Z,39.13
2023-02-13T04:55:41.488Z,42.05
2023-02-13T04:58:08.123Z,39.25
2023-02-13T05:00:34.716Z,39.05
2023-02-13T05:03:06.276Z,38.22
2023-02-13T05:05:33.460Z,39.72
2023-02-13T05:08:00.195Z,42.55
2023-02-13T05:10:27.388Z,40.55
2023-02-13T05:12:53.985Z,40.95
2023-02-13T05:15:21.251Z,39.92
2023-02-13T05:17:47.943Z,39.47
2023-02-13T05:20:14.755Z,40.38
2023-02-13T05:23:07.552Z,40.30
2023-02-13T05:25:35.569Z,41.17
2023-02-13T05:28:03.138Z,38.88
2023-02-13T05:30:29.853Z,41.00
2023-02-13T05:32:56.735Z,41.25
2023-02-13T05:35:24.903Z,42.58
2023-02-13T05:37:51.618Z,44.20
2023-02-13T05:40:18.691Z,46.65
2023-02-13T05:42:45.299Z,45.85
2023-02-13T05:45:11.969Z,43.15
2023-02-13T05:47:38.620Z,44.17
2023-02-13T05:50:06.004Z,45.17
2023-02-13T05:52:32.575Z,46.83
2023-02-13T05:55:04.511Z,48.25
2023-02-13T05:57:31.391Z,46.42
2023-02-13T05:59:58.529Z,46.38
2023-02-13T06:02:25.204Z,45.60
2023-02-13T06:04:51.888Z,46.72
2023-02-13T06:07:18.504Z,46.03
2023-02-13T06:09:45.052Z,48.92
2023-02-13T06:12:11.647Z,46.13
2023-02-13T06:14:38.238Z,47.20
2023-02-13T06:17:04.877Z,50.55
2023-02-13T06:19:31.577Z,52.05
2023-02-13T06:21:58.208Z,49.50
2023-02-13T06:24:24.796Z,47.28
2023-02-13T06:26:51.543Z,50.50
2023-02-13T06:29:18.161Z,48.55
2023-02-13T06:31:44.851Z,51.95
2023-02-13T06:34:11.465Z,56.95
2023-02-13T06:36:38.684Z,51.35
2023-02-13T06:39:05.323Z,55.17
2023-02-13T06:41:31.998Z,57.72
2023-02-13T06:43:58.637Z,55.85
2023-02-13T06:46:25.510Z,53.60
2023-02-13T06:48:52.147Z,57.67
2023-02-13T06:51:18.835Z,83.80
2023-02-13T06:53:45.464Z,84.60
2023-02-13T06:56:12.067Z,75.65
2023-02-13T06:58:40.105Z,66.68
2023-02-13T07:01:06.827Z,63.70
2023-02-13T07:03:33.603Z,66.05
2023-02-13T07:06:00.233Z,67.57
2023-02-13T07:08:26.920Z,78.53
2023-02-13T07:10:53.507Z,70.55
2023-02-13T07:13:20.158Z,74.22
2023-02-13T07:15:46.780Z,62.50
2023-02-13T07:18:13.443Z,63.90
2023-02-13T07:20:40.176Z,54.72
2023-02-13T07:23:07.709Z,54.97
2023-02-13T07:25:35.198Z,72.28
2023-02-13T07:28:03.627Z,75.43
2023-02-13T07:30:32.472Z,58.80
2023-02-13T07:33:01.938Z,53.88
2023-02-13T07:35:28.683Z,48.83
2023-02-13T07:37:55.885Z,47.67
2023-02-13T07:40:23.149Z,41.10
2023-02-13T07:42:49.760Z,44.05
2023-02-13T07:45:16.565Z,41.50
2023-02-13T07:47:43.463Z,41.30
2023-02-13T07:50:10.438Z,44.72
2023-02-13T07:52:40.237Z,42.03
2023-02-13T07:55:07.326Z,42.80
2023-02-13T07:57:34.049Z,41.38
2023-02-13T08:00:00.794Z,36.95
2023-02-13T08:02:27.486Z,34.28
2023-02-13T08:04:54.411Z,35.15
2023-02-13T08:07:21.126Z,34.95
2023-02-13T08:10:06.547Z,37.63
2023-02-13T08:12:35.789Z,37.92
2023-02-13T08:15:03.264Z,36.40
2023-02-13T08:17:29.856Z,37.67
2023-02-13T08:19:56.585Z,34.72
2023-02-13T08:22:23.246Z,37.40
2023-02-13T08:24:49.943Z,33.65
2023-02-13T08:27:16.662Z,35.42
2023-02-13T08:29:43.282Z,38.20
2023-02-13T08:32:10.070Z,35.38
2023-02-13T08:34:36.963Z,34.03
2023-02-13T08:37:03.764Z,37.13
2023-02-13T08:39:30.448Z,35.28
2023-02-13T08:41:57.131Z,37.92
2023-02-13T08:44:23.729Z,37.00
2023-02-13T08:46:50.308Z,36.35
2023-02-13T08:49:17.169Z,38.25
2023-02-13T08:51:43.861Z,37.90
2023-02-13T08:54:10.548Z,36.22
2023-02-13T08:56:37.263Z,36.42
2023-02-13T08:59:04.073Z,36.30
2023-02-13T09:01:30.804Z,35.67
2023-02-13T09:03:57.462Z,36.50
2023-02-13T09:06:26.355Z,37.40
2023-02-13T09:08:53.386Z,38.55
2023-02-13T09:11:23.301Z,33.97
2023-02-13T09:13:53.131Z,35.70
2023-02-13T09:16:20.230Z,35.40
2023-02-13T09:18:48.584Z,35.33
2023-02-13T09:21:15.488Z,35.58
2023-02-13T09:23:42.236Z,38.25
2023-02-13T09:26:11.474Z,35.95
2023-02-13T09:28:39.138Z,36.20
2023-02-13T09:31:10.148Z,35.28
2023-02-13T09:33:38.100Z,37.40
2023-02-13T09:36:10.388Z,34.08
2023-02-13T09:41:07.972Z,35.47
2023-02-13T09:43:44.699Z,35.63
2023-02-13T09:46:18.990Z,37.05
2023-02-13T09:48:49.405Z,35.45
2023-02-13T09:51:19.409Z,36.42
2023-02-13T09:53:55.639Z,32.35
2023-02-13T09:56:37.618Z,32.90
2023-02-13T09:59:27.231Z,30.52
2023-02-13T10:01:58.553Z,28.98
2023-02-13T10:04:40.244Z,33.85
2023-02-13T10:07:09.827Z,31.27
2023-02-13T10:09:44.789Z,29.65
2023-02-13T10:12:26.486Z,27.88
2023-02-13T10:15:20.604Z,30.77
2023-02-13T10:17:55.070Z,27.88
2023-02-13T10:20:43.200Z,25.58
2023-02-13T10:23:22.345Z,28.80
2023-02-13T10:26:01.023Z,27.15
2023-02-13T10:28:40.631Z,26.55
2023-02-13T10:31:12.732Z,26.52
2023-02-13T10:33:50.798Z,30.52
2023-02-13T10:36:28.462Z,27.10
2023-02-13T10:39:02.289Z,25.95
2023-02-13T10:41:52.066Z,26.83
2023-02-13T10:44:34.446Z,25.38
2023-02-13T10:47:10.771Z,29.48
2023-02-13T10:50:08.012Z,25.50
2023-02-13T10:52:43.386Z,29.15
2023-02-13T10:55:24.845Z,23.73
2023-02-13T10:58:17.708Z,24.10
2023-02-13T11:00:58.984Z,25.27
2023-02-13T11:03:28.406Z,25.48
2023-02-13T11:05:57.306Z,25.33
2023-02-13T11:08:43.179Z,26.85
2023-02-13T11:11:35.970Z,24.30
2023-02-13T11:14:10.566Z,22.65
2023-02-13T11:17:01.588Z,21.08
2023-02-13T11:19:38.910Z,21.73
2023-02-13T11:22:13.506Z,18.98
2023-02-13T11:24:53.517Z,18.13
2023-02-13T11:27:26.818Z,17.73
2023-02-13T11:30:05.264Z,17.58
2023-02-13T11:32:34.173Z,20.05
2023-02-13T11:35:31.742Z,19.10
2023-02-13T11:38:23.698Z,17.55
2023-02-13T11:41:11.261Z,15.98
2023-02-13T11:43:47.589Z,16.55
2023-02-13T11:46:23.744Z,14.43
2023-02-13T11:48:59.516Z,12.95
2023-02-13T11:51:42.949Z,12.15
2023-02-13T11:54:32.596Z,11.82
2023-02-13T11:57:05.424Z,12.10
2023-02-13T11:59:40.257Z,12.20
2023-02-13T12:02:15.628Z,13.73
2023-02-13T12:04:42.810Z,13.05
2023-02-13T12:07:27.485Z,10.63
2023-02-13T12:10:14.146Z,11.13
2023-02-13T12:13:11.163Z,11.32
2023-02-13T12:15:38.138Z,12.15
2023-02-13T12:18:04.735Z,11.85
2023-02-13T12:20:40.938Z,11.77
2023-02-13T12:23:18.058Z,12.75
2023-02-13T12:26:22.104Z,11.75
2023-02-13T12:29:08.782Z,10.68
2023-02-13T12:31:47.240Z,9.93
2023-02-13T12:34:54.576Z,10.35
2023-02-13T12:37:39.018Z,11.88
2023-02-13T12:40:37.011Z,9.82
2023-02-13T12:43:19.009Z,11.65
2023-02-13T12:45:57.657Z,10.75
2023-02-13T12:48:35.092Z,11.02
2023-02-13T12:51:23.044Z,12.15
2023-02-13T12:54:22.564Z,11.55
2023-02-13T12:57:30.872Z,12.45
2023-02-13T13:00:03.259Z,11.20
2023-02-13T13:06:08.938Z,11.27
2023-02-13T13:08:59.654Z,11.07
2023-02-13T13:11:44.467Z,10.50
2023-02-13T13:14:31.626Z,11.27
2023-02-13T13:17:25.326Z,11.95
2023-02-13T13:19:57.322Z,10.93
2023-02-13T13:22:37.754Z,11.13
2023-02-13T13:25:44.036Z,11.73
2023-02-13T13:28:17.220Z,11.38
2023-02-13T13:30:45.782Z,11.65
2023-02-13T13:33:21.236Z,11.73
2023-02-13T13:36:44.941Z,11.95
2023-02-13T13:39:30.216Z,12.23
2023-02-13T13:42:14.749Z,12.13
2023-02-13T13:44:53.506Z,11.65
2023-02-13T13:47:48.972Z,12.18
2023-02-13T13:50:27.861Z,11.82
2023-02-13T13:53:19.813Z,12.20
2023-02-13T13:56:11.312Z,12.23
2023-02-13T13:58:49.553Z,12.52
2023-02-13T14:01:29.790Z,13.80
2023-02-13T14:04:24.312Z,12.55
2023-02-13T14:06:50.856Z,13.48
2023-02-13T14:09:39.031Z,11.40
2023-02-13T14:12:24.332Z,11.77
2023-02-13T14:14:52.692Z,13.27
2023-02-13T14:17:44.509Z,11.98
2023-02-13T14:20:31.389Z,11.83
2023-02-13T14:23:08.431Z,11.32
2023-02-13T14:25:35.456Z,11.77
2023-02-13T14:28:06.516Z,12.82
2023-02-13T14:30:36.552Z,12.73
2023-02-13T14:33:06.078Z,12.68
2023-02-13T14:35:37.466Z,13.90
2023-02-13T14:38:08.268Z,10.23
2023-02-13T14:40:52.082Z,16.85
2023-02-13T14:43:40.298Z,11.70
2023-02-13T14:46:18.951Z,11.52
2023-02-13T14:48:51.570Z,11.70
2023-02-13T14:51:34.420Z,11.73
2023-02-13T14:54:06.603Z,12.40
2023-02-13T14:56:34.028Z,11.48
2023-02-13T14:59:20.239Z,11.55
2023-02-13T15:01:52.861Z,10.23
2023-02-13T15:05:01.437Z,10.30
2023-02-13T15:07:32.225Z,10.38
2023-02-13T15:10:05.920Z,11.63
2023-02-13T15:12:37.625Z,10.55
2023-02-13T15:15:24.231Z,10.80
2023-02-13T15:18:04.680Z,11.13
2023-02-13T15:20:34.891Z,10.90
2023-02-13T15:23:02.470Z,12.43
2023-02-13T15:25:37.017Z,13.02
2023-02-13T15:28:06.693Z,11.70
2023-02-13T15:30:39.257Z,10.90
2023-02-13T15:33:21.273Z,11.02
2023-02-13T15:35:58.586Z,11.70
2023-02-13T15:38:34.606Z,12.45
2023-02-13T15:41:07.919Z,11.38
2023-02-13T15:43:37.392Z,13.50
2023-02-13T15:46:27.093Z,11.95
2023-02-13T15:48:57.080Z,14.65
2023-02-13T15:51:29.809Z,16.13
2023-02-13T15:54:05.649Z,14.07
2023-02-13T15:56:32.888Z,14.60
2023-02-13T15:59:01.629Z,13.90
2023-02-13T16:01:29.309Z,13.68
2023-02-13T16:04:05.369Z,15.20
2023-02-13T16:06:34.177Z,12.82
2023-02-13T16:09:02.570Z,13.13
2023-02-13T16:11:40.144Z,14.13
2023-02-13T16:14:15.190Z,14.35
2023-02-13T16:16:49.632Z,14.65
2023-02-13T16:19:27.574Z,20.10
2023-02-13T16:21:58.272Z,14.82
2023-02-13T16:24:27.104Z,14.77
2023-02-13T16:26:54.243Z,14.68
2023-02-13T16:29:23.658Z,14.00
2023-02-13T16:31:52.085Z,15.05
2023-02-13T16:34:29.869Z,15.63
2023-02-13T16:36:56.889Z,16.48
2023-02-13T16:39:30.023Z,16.35
2023-02-13T16:42:01.212Z,17.75
2023-02-13T16:44:30.839Z,17.15
2023-02-13T16:47:22.033Z,18.80
2023-02-13T16:49:56.506Z,16.15
2023-02-13T16:52:26.817Z,18.90
2023-02-13T16:54:58.286Z,18.25
2023-02-13T16:57:30.706Z,18.17
2023-02-13T17:00:24.474Z,17.33
2023-02-13T17:02:52.080Z,16.42
2023-02-13T17:05:28.300Z,15.93
2023-02-13T17:08:00.505Z,18.05
2023-02-13T17:10:31.459Z,16.15
2023-02-13T17:13:01.497Z,23.23
2023-02-13T17:15:31.535Z,18.67
2023-02-13T17:17:58.961Z,18.70
2023-02-13T17:20:28.540Z,16.20
2023-02-13T17:22:57.733Z,18.30
2023-02-13T17:25:30.634Z,18.00
2023-02-13T17:28:03.082Z,17.75
2023-02-13T17:30:32.461Z,17.67
2023-02-13T17:33:32.376Z,17.63
2023-02-13T17:35:59.066Z,18.05
2023-02-13T17:38:31.803Z,17.08
2023-02-13T17:40:58.731Z,18.83
2023-02-13T17:43:27.077Z,17.15
2023-02-13T17:45:53.660Z,16.75
2023-02-13T17:48:20.445Z,18.80
2023-02-13T17:50:50.039Z,17.52
2023-02-13T17:53:24.005Z,17.35
2023-02-13T17:55:51.154Z,16.52
2023-02-13T17:58:17.845Z,14.77
2023-02-13T18:00:47.551Z,14.63
2023-02-13T18:03:14.220Z,14.75
2023-02-13T18:05:41.204Z,14.98
2023-02-13T18:08:08.227Z,14.50
2023-02-13T18:10:36.801Z,15.00
2023-02-13T18:13:04.551Z,13.85
2023-02-13T18:15:38.966Z,15.82
2023-02-13T18:18:05.908Z,15.45
2023-02-13T18:20:32.889Z,17.48
2023-02-13T18:22:59.559Z,17.45
2023-02-13T18:25:26.881Z,16.42
2023-02-13T18:27:55.429Z,19.20
2023-02-13T18:30:22.553Z,18.63
2023-02-13T18:32:53.842Z,18.58
2023-02-13T18:35:22.089Z,16.25
2023-02-13T18:37:49.087Z,16.17
2023-02-13T18:40:17.263Z,18.65
2023-02-13T18:42:44.783Z,17.90
2023-02-13T18:45:14.900Z,18.25
2023-02-13T18:47:41.656Z,17.98
2023-02-13T18:50:11.673Z,18.85
2023-02-13T18:52:38.497Z,23.50
2023-02-13T18:55:07.248Z,20.90
2023-02-13T18:57:34.579Z,20.13
2023-02-13T19:00:01.274Z,20.70
2023-02-13T19:02:28.002Z,19.10
2023-02-13T19:04:54.636Z,22.02
2023-02-13T19:07:21.550Z,20.48
2023-02-13T19:09:48.901Z,20.63
2023-02-13T19:12:15.746Z,19.65
2023-02-13T19:14:42.435Z,19.67
2023-02-13T19:17:10.317Z,20.40
2023-02-13T19:19:37.161Z,18.58
2023-02-13T19:22:03.841Z,17.80
2023-02-13T19:24:30.646Z,17.77
2023-02-13T19:26:57.290Z,19.15
2023-02-13T19:29:24.033Z,17.10
2023-02-13T19:31:50.847Z,16.48
2023-02-13T19:34:17.505Z,15.45
2023-02-13T19:36:44.305Z,16.90
2023-02-13T19:39:11.250Z,16.90
2023-02-13T19:41:40.708Z,15.88
2023-02-13T19:44:08.799Z,16.02
2023-02-13T19:46:36.763Z,18.17
2023-02-13T19:49:04.623Z,16.70
2023-02-13T19:51:33.431Z,18.17
2023-02-13T19:54:08.296Z,15.50
2023-02-13T19:56:40.401Z,18.27
2023-02-13T20:01:37.491Z,18.90
2023-02-13T20:04:04.208Z,16.67
2023-02-13T20:06:33.548Z,19.83
2023-02-13T20:09:01.863Z,17.33
2023-02-13T20:11:28.851Z,15.23
2023-02-13T20:13:57.420Z,17.05
2023-02-13T20:16:24.196Z,15.65
2023-02-13T20:18:51.049Z,16.90
2023-02-13T20:21:18.872Z,16.65
2023-02-13T20:23:50.629Z,16.20
2023-02-13T20:26:17.991Z,14.07
2023-02-13T20:28:46.209Z,16.23
2023-02-13T20:31:18.695Z,13.52
2023-02-13T20:33:45.653Z,15.73
2023-02-13T20:36:24.498Z,15.80
2023-02-13T20:38:54.484Z,15.35
2023-02-13T20:41:39.153Z,15.13
2023-02-13T20:44:10.414Z,14.90
2023-02-13T20:46:39.367Z,23.63
2023-02-13T20:49:06.258Z,19.25
2023-02-13T20:51:33.262Z,17.10
2023-02-13T20:54:00.896Z,14.70
2023-02-13T20:56:28.596Z,17.08
2023-02-13T20:58:57.780Z,17.52
2023-02-13T21:01:30.814Z,16.08
2023-02-13T21:03:58.762Z,18.38
2023-02-13T21:06:30.262Z,17.92
2023-02-13T21:08:57.324Z,15.65
2023-02-13T21:11:24.979Z,18.35
2023-02-13T21:13:52.025Z,19.05
2023-02-13T21:16:24.758Z,17.80
2023-02-13T21:18:54.809Z,16.77
2023-02-13T21:21:24.463Z,17.77
2023-02-13T21:23:55.389Z,15.82
2023-02-13T21:26:22.860Z,17.70
2023-02-13T21:28:50.274Z,17.42
2023-02-13T21:31:24.164Z,17.70
2023-02-13T21:33:51.896Z,15.65
2023-02-13T21:36:18.937Z,16.38
2023-02-13T21:38:45.570Z,19.67
2023-02-13T21:41:15.479Z,24.20
2023-02-13T21:43:46.792Z,18.40
2023-02-13T21:46:19.758Z,17.10
2023-02-13T21:48:47.484Z,16.73
2023-02-13T21:51:16.763Z,15.65
2023-02-13T21:53:44.296Z,16.25
2023-02-13T21:56:14.205Z,17.20
2023-02-13T21:58:42.488Z,17.33
2023-02-13T22:01:25.570Z,17.02
2023-02-13T22:03:54.529Z,17.58
2023-02-13T22:06:21.798Z,18.48
2023-02-13T22:08:49.113Z,18.80
2023-02-13T22:11:18.482Z,17.63
2023-02-13T22:13:45.095Z,18.23
2023-02-13T22:16:14.262Z,16.83
2023-02-13T22:18:43.592Z,17.15
2023-02-13T22:21:15.532Z,17.25
2023-02-13T22:23:43.867Z,17.38
2023-02-13T22:26:19.443Z,18.13
2023-02-13T22:28:46.747Z,17.90
2023-02-13T22:31:15.094Z,17.42
2023-02-13T22:33:42.935Z,17.30
2023-02-13T22:36:13.125Z,18.35
2023-02-13T22:38:41.465Z,18.67
2023-02-13T22:41:19.450Z,15.27
2023-02-13T22:43:46.499Z,16.70
2023-02-13T22:46:22.209Z,16.58
2023-02-13T22:48:52.068Z,16.13
2023-02-13T22:51:27.459Z,15.25
2023-02-13T22:53:57.674Z,15.82
2023-02-13T22:56:25.684Z,16.30
2023-02-13T22:58:52.550Z,16.13
2023-02-13T23:01:23.990Z,15.93
2023-02-13T23:03:50.916Z,16.93
2023-02-13T23:06:19.211Z,16.92
2023-02-13T23:08:45.857Z,15.32
2023-02-13T23:11:33.734Z,15.05
2023-02-13T23:14:00.721Z,15.20
2023-02-13T23:16:27.666Z,15.43
2023-02-13T23:18:57.800Z,14.00
2023-02-13T23:21:25.537Z,15.68
2023-02-13T23:23:52.184Z,15.23
2023-02-13T23:26:19.341Z,15.05
2023-02-13T23:28:46.082Z,15.35
2023-02-13T23:31:12.787Z,16.42
2023-02-13T23:33:39.593Z,16.20
2023-02-13T23:36:06.810Z,17.38
2023-02-13T23:38:33.496Z,16.80
2023-02-13T23:41:09.340Z,18.23
2023-02-13T23:43:36.440Z,15.30
2023-02-13T23:46:04.639Z,17.02
2023-02-13T23:48:31.819Z,17.27
2023-02-13T23:50:59.204Z,15.90
2023-02-13T23:53:26.346Z,15.77
2023-02-13T23:55:55.015Z,15.57
2023-02-13T23:58:21.694Z,15.25
